Terminal Aerodrome Forecast
Issued by NWS

Home | Current Version | Previous Version | Text Only | Print | Product List | Glossary Off
Versions: 1 2 3 4 5 6 7 8 9 10 11 12 13 14

000
FTUS43 KMPX 261000 AAB
TAFRNH
TAF AMD
KRNH 261002Z 2610/2706 01005KT 4SM BR SCT015 OVC040
     FM261200 01007KT 4SM BR OVC008
     FM261800 35008KT 6SM BR OVC015
     FM270300 35006KT 4SM -SN BR OVC012=

USA.gov is the U.S. government's official web portal to all federal, state and local government web resources and services.